메인 페이지
METAR-TAF:

METAR-TAF

공항 :

Bauru, 상파울루, 브라질

위도: 22-19S, 경도: 049-04W, 고도: 590m

현재 날씨관측

예보는 1 시간 1분 전, 23:00시(UTC)에 발표되었습니다.
남서9kt
온도 24°C
습도 69%
기압 1019 hPa
시정 10km 이상
1500m 미만 상공 구름 및 적란운 없음

METAR: SBBU 192300Z 22009KT CAVOK 24/18 Q1019

시각: 21:01 (00:01 UTC)

예보

예보는 7 시간 31분 전, 16:30시(UTC)에 발표되었습니다.
예보 대상 시간: 19일 18시부터 20일 06시까지 (UTC)
서북서5kt
시정 10km 이상
1500m 미만 상공 구름 및 적란운 없음
전환 중
19일 21시부터 19일 23시까지 (UTC)
남남동10kt

TAF: SBBU 191630Z 1918/2006 30005KT CAVOK TX31/1919Z TN19/2005Z BECMG 1921/1923 15010KT RMK PGG

4,000개 이상의 공항 관측 자료 및 예보 (METAR 및 TAF 보고).

지도상에서 검색 가능한 기상관측소가 노란 점과 빨간 점으로 표시되어 있습니다.

기상관측소 명을 보려면 표시 위로 마우스를 이동하세요.

날씨 관측과 예보를 보려면 클릭하세요.

지도 변경 : 확대하려면 엑스 표시가 있는 녹색 버튼, 축소하려면 빼기 표시가 있는 녹색 버튼, 다음 페이지의 지도를 보려면 녹색 화살표를 클릭하세요.


METAR-TAF: